Time;durP1;ratioP1;P1;durP2;ratioP2;P2;SDS_P1;SDS_P2;PMS_P1;PMS_P2;Temp;Humidity;BMP_temperature;BMP_pressure;BME280_temperature;BME280_humidity;BME280_pressure;Samples;Min_cycle;Max_cycle;Signal;HPM_P1;HPM_P2
2021/09/13 06:57:23;;;;;;;12.10;7.80;;;14.90;99.80;;;;;;4993496;28;20617;-82
2021/09/13 06:59:51;;;;;;;11.00;7.50;;;15.00;99.80;;;;;;5011355;28;20477;-82
2021/09/13 07:02:19;;;;;;;15.13;8.30;;;15.10;99.80;;;;;;5012214;28;20474;-82
2021/09/13 07:04:47;;;;;;;11.73;8.30;;;15.10;99.80;;;;;;5020660;28;20909;-82
2021/09/13 07:07:15;;;;;;;11.67;8.70;;;;;;;;;;5001552;28;20481;-83
2021/09/13 07:09:44;;;;;;;10.03;8.33;;;;;;;;;;4998937;28;20480;-82
2021/09/13 07:12:12;;;;;;;11.53;8.60;;;15.50;99.80;;;;;;4990842;28;20834;-84
2021/09/13 07:14:41;;;;;;;13.50;10.73;;;15.60;99.80;;;;;;5011922;28;20485;-84
2021/09/13 07:17:09;;;;;;;11.63;9.10;;;15.80;99.80;;;;;;5015720;28;20474;-83
2021/09/13 07:19:38;;;;;;;11.70;8.80;;;;;;;;;;5021848;28;20504;-84
2021/09/13 07:22:07;;;;;;;14.70;10.37;;;16.00;99.80;;;;;;5026008;28;20473;-84
2021/09/13 07:24:35;;;;;;;13.13;9.60;;;16.00;99.80;;;;;;5023191;28;20470;-83
2021/09/13 07:27:03;;;;;;;11.63;9.50;;;16.00;99.80;;;;;;5010291;28;20480;-82
2021/09/13 07:29:31;;;;;;;9.50;7.67;;;16.10;99.80;;;;;;5002331;28;20483;-84
2021/09/13 07:32:01;;;;;;;9.87;8.20;;;16.00;99.80;;;;;;4993272;28;20687;-83
2021/09/13 07:34:30;;;;;;;10.60;8.87;;;15.90;99.80;;;;;;5023173;28;21146;-83
2021/09/13 07:36:58;;;;;;;9.53;8.43;;;15.90;99.80;;;;;;5022313;28;20823;-83
2021/09/13 07:39:27;;;;;;;15.17;9.20;;;15.80;99.80;;;;;;5000203;28;20476;-83
2021/09/13 07:41:56;;;;;;;15.07;8.60;;;15.90;99.80;;;;;;5004573;28;20481;-83
2021/09/13 07:44:24;;;;;;;9.50;8.40;;;15.90;99.80;;;;;;5005448;28;20474;-83
2021/09/13 07:46:53;;;;;;;9.63;8.60;;;;;;;;;;4996469;28;20468;-83
2021/09/13 07:49:22;;;;;;;12.90;8.40;;;16.00;99.80;;;;;;5021721;28;20839;-83
2021/09/13 07:51:52;;;;;;;10.73;9.17;;;16.10;99.80;;;;;;5030863;28;20471;-82
2021/09/13 07:54:20;;;;;;;11.00;8.53;;;16.20;99.80;;;;;;5024322;28;20515;-83
2021/09/13 07:56:48;;;;;;;11.30;9.30;;;;;;;;;;5023863;28;21253;-84
2021/09/13 07:59:16;;;;;;;9.67;8.70;;;16.20;99.80;;;;;;5009263;28;20470;-83
2021/09/13 08:01:44;;;;;;;12.40;8.90;;;16.30;99.80;;;;;;4991088;28;20902;-83
2021/09/13 08:04:13;;;;;;;14.57;9.77;;;16.40;99.80;;;;;;5024244;28;20507;-85
2021/09/13 08:06:42;;;;;;;12.30;9.13;;;16.50;99.80;;;;;;5028092;28;20489;-86
2021/09/13 08:09:10;;;;;;;9.47;8.40;;;;;;;;;;5007243;28;20564;-86
2021/09/13 08:11:38;;;;;;;16.87;7.90;;;16.60;99.80;;;;;;4981178;28;20577;-85
2021/09/13 08:14:07;;;;;;;11.97;8.40;;;16.60;99.80;;;;;;4998643;28;20550;-86
2021/09/13 08:16:35;;;;;;;8.73;7.67;;;16.60;99.80;;;;;;5007463;28;20559;-85
2021/09/13 08:19:04;;;;;;;12.83;9.37;;;16.70;99.80;;;;;;5007049;28;20509;-85
2021/09/13 08:21:34;;;;;;;14.67;9.53;;;16.70;99.80;;;;;;4998805;28;20500;-84
2021/09/13 08:24:03;;;;;;;11.83;9.40;;;16.90;99.80;;;;;;5012825;28;20848;-85
2021/09/13 08:26:31;;;;;;;10.13;8.47;;;17.00;99.80;;;;;;5004830;28;20490;-86
2021/09/13 08:29:00;;;;;;;12.97;9.87;;;;;;;;;;4982376;28;20471;-85
2021/09/13 08:31:28;;;;;;;11.97;10.60;;;17.40;99.80;;;;;;5004699;28;21034;-85
2021/09/13 08:33:56;;;;;;;11.47;9.03;;;;;;;;;;5018742;28;20833;-84
2021/09/13 08:36:24;;;;;;;22.53;9.60;;;17.60;99.80;;;;;;5029675;28;20476;-85
2021/09/13 08:38:52;;;;;;;12.80;10.67;;;17.80;99.80;;;;;;5025347;28;20516;-85
2021/09/13 08:41:21;;;;;;;10.50;9.37;;;18.00;99.80;;;;;;5006584;28;21149;-86
2021/09/13 08:43:58;;;;;;;12.37;8.90;;;18.10;99.80;;;;;;4995331;28;20562;-83
2021/09/13 08:46:42;;;;;;;14.77;9.70;;;18.20;99.80;;;;;;5002860;28;20854;-83
2021/09/13 08:49:12;;;;;;;12.00;9.77;;;18.30;99.80;;;;;;5014726;28;20472;-82
2021/09/13 08:51:40;;;;;;;15.00;9.53;;;18.40;99.80;;;;;;5005986;28;20478;-83
2021/09/13 08:54:10;;;;;;;12.60;10.13;;;18.50;99.80;;;;;;4997443;28;20498;-82
2021/09/13 08:56:41;;;;;;;9.87;8.87;;;18.50;99.80;;;;;;5007266;28;20467;-82
2021/09/13 08:59:14;;;;;;;18.50;10.00;;;18.60;99.80;;;;;;5003105;28;20690;-82
2021/09/13 09:01:42;;;;;;;12.70;10.17;;;18.70;99.80;;;;;;5009807;28;20562;-82
2021/09/13 09:04:12;;;;;;;11.37;9.50;;;18.80;99.80;;;;;;5008490;28;20838;-82
2021/09/13 09:06:42;;;;;;;17.00;10.70;;;18.90;99.80;;;;;;5025787;28;20477;-83
2021/09/13 09:09:12;;;;;;;13.43;9.50;;;18.90;99.80;;;;;;5047104;28;20827;-82
2021/09/13 09:11:59;;;;;;;12.37;9.63;;;18.90;99.80;;;;;;5032132;28;20467;-84
2021/09/13 09:14:34;;;;;;;18.60;9.70;;;19.00;99.80;;;;;;4998897;28;20511;-82
2021/09/13 09:17:05;;;;;;;13.53;10.57;;;19.00;99.80;;;;;;5006333;28;20475;-83
2021/09/13 09:19:33;;;;;;;15.13;9.57;;;19.10;99.80;;;;;;5041137;28;20471;-82
2021/09/13 09:22:21;;;;;;;16.00;10.23;;;19.20;99.80;;;;;;5017331;28;21085;-82
2021/09/13 09:24:51;;;;;;;12.63;9.80;;;19.20;99.80;;;;;;4997783;28;20503;-82
2021/09/13 09:27:21;;;;;;;14.03;11.13;;;19.20;99.80;;;;;;5006687;28;20487;-82
2021/09/13 09:29:49;;;;;;;12.57;10.10;;;19.20;99.80;;;;;;4998841;28;20499;-82
2021/09/13 09:32:23;;;;;;;13.40;10.90;;;19.10;99.80;;;;;;5003691;28;20499;-82
2021/09/13 09:34:52;;;;;;;12.83;10.70;;;19.20;99.80;;;;;;5005555;28;20468;-82
2021/09/13 09:37:24;;;;;;;12.50;10.53;;;19.20;99.80;;;;;;5028293;28;20467;-83
2021/09/13 09:39:56;;;;;;;14.43;9.97;;;19.40;99.80;;;;;;5030970;28;20478;-83
2021/09/13 09:42:33;;;;;;;10.00;8.90;;;19.60;99.80;;;;;;5018225;28;20468;-83
2021/09/13 09:45:06;;;;;;;12.53;9.97;;;20.00;99.80;;;;;;5011047;28;20547;-83
2021/09/13 09:47:34;;;;;;;11.50;8.80;;;20.30;99.80;;;;;;4989218;28;20469;-82
2021/09/13 09:50:02;;;;;;;13.40;10.10;;;20.50;99.80;;;;;;5029475;28;20472;-83
2021/09/13 09:52:36;;;;;;;12.20;9.83;;;20.60;99.80;;;;;;5032537;28;20474;-82
2021/09/13 09:55:17;;;;;;;13.53;8.33;;;20.70;99.80;;;;;;5017830;28;20477;-83
2021/09/13 09:58:05;;;;;;;12.90;7.87;;;20.90;99.80;;;;;;5014354;28;20462;-82
2021/09/13 10:00:37;;;;;;;8.50;7.57;;;21.00;99.80;;;;;;4992400;28;20479;-83
2021/09/13 10:03:05;;;;;;;9.37;7.57;;;21.20;99.80;;;;;;5011831;28;20468;-84
2021/09/13 10:05:35;;;;;;;14.07;7.40;;;21.40;99.80;;;;;;5005744;28;20524;-83
2021/09/13 10:08:04;;;;;;;9.63;8.27;;;21.50;99.80;;;;;;4992774;28;20484;-82
2021/09/13 10:10:33;;;;;;;12.20;9.10;;;21.60;99.80;;;;;;5003998;28;20474;-82
2021/09/13 10:13:03;;;;;;;12.23;9.57;;;21.60;99.80;;;;;;5004510;28;20498;-83
2021/09/13 10:15:31;;;;;;;14.07;10.17;;;21.70;99.80;;;;;;4995961;28;20508;-82
2021/09/13 10:18:00;;;;;;;10.03;9.00;;;21.80;99.80;;;;;;5010278;28;20468;-82
2021/09/13 10:20:28;;;;;;;10.80;8.70;;;21.90;99.80;;;;;;5031115;28;20490;-82
2021/09/13 10:22:57;;;;;;;11.37;9.13;;;22.00;99.80;;;;;;5024244;28;20460;-82
2021/09/13 10:25:30;;;;;;;9.57;8.00;;;22.10;99.80;;;;;;5011836;28;20472;-82
2021/09/13 10:28:06;;;;;;;10.23;9.23;;;22.30;98.90;;;;;;5019214;28;20555;-82
2021/09/13 10:30:49;;;;;;;8.80;7.63;;;22.40;99.80;;;;;;5018600;28;20459;-83
2021/09/13 10:33:25;;;;;;;8.57;7.77;;;22.40;96.70;;;;;;4988680;28;21436;-82
2021/09/13 10:35:55;;;;;;;8.73;6.70;;;22.40;97.70;;;;;;5003322;28;20481;-82
2021/09/13 10:38:42;;;;;;;9.50;8.03;;;22.50;95.80;;;;;;5010714;28;20563;-83
2021/09/13 10:41:11;;;;;;;8.40;7.60;;;22.50;96.30;;;;;;4997265;28;21087;-82
2021/09/13 10:44:07;;;;;;;9.90;6.50;;;22.60;95.50;;;;;;5011480;28;20472;-82
2021/09/13 10:47:00;;;;;;;11.80;9.17;;;22.70;95.20;;;;;;5010451;28;20503;-82
2021/09/13 10:49:28;;;;;;;6.70;6.10;;;;;;;;;;5015973;28;20473;-82
2021/09/13 10:52:30;;;;;;;7.57;6.87;;;22.90;94.90;;;;;;5018375;28;20468;-82
2021/09/13 10:55:23;;;;;;;6.20;5.70;;;23.00;93.10;;;;;;5024987;28;20466;-83
2021/09/13 10:58:13;;;;;;;11.77;7.90;;;23.00;91.30;;;;;;4970382;28;20475;-82
2021/09/13 11:00:59;;;;;;;7.90;7.10;;;23.10;92.00;;;;;;5000086;28;20480;-83
2021/09/13 11:03:40;;;;;;;6.10;5.60;;;23.30;93.30;;;;;;5018684;28;20852;-83
2021/09/13 11:06:38;;;;;;;9.63;6.10;;;23.60;92.80;;;;;;5028816;28;20523;-83
2021/09/13 11:09:18;;;;;;;9.43;7.23;;;23.70;88.80;;;;;;5004912;28;20523;-85
2021/09/13 11:11:58;;;;;;;4.60;4.20;;;23.90;87.90;;;;;;5004710;28;20481;-83
2021/09/13 11:14:28;;;;;;;6.83;4.97;;;24.10;89.50;;;;;;5010728;28;20460;-83
2021/09/13 11:17:00;;;;;;;5.97;4.97;;;24.30;87.00;;;;;;4997280;28;21076;-84
2021/09/13 11:19:29;;;;;;;7.07;5.30;;;24.60;88.10;;;;;;5023193;28;21221;-84
2021/09/13 11:21:58;;;;;;;4.73;4.10;;;24.90;87.60;;;;;;5027661;28;20862;-83
2021/09/13 11:24:30;;;;;;;5.63;3.80;;;25.10;84.50;;;;;;5029281;28;20464;-84
2021/09/13 11:26:59;;;;;;;4.80;4.33;;;25.30;83.50;;;;;;5027130;28;20578;-84
2021/09/13 11:29:29;;;;;;;4.20;3.90;;;25.50;80.60;;;;;;4996635;28;20473;-82
2021/09/13 11:31:59;;;;;;;4.60;4.00;;;25.50;81.60;;;;;;5011272;28;20481;-83
2021/09/13 11:34:32;;;;;;;5.00;3.93;;;;;;;;;;5028507;28;20475;-82
2021/09/13 11:37:02;;;;;;;5.03;4.47;;;;;;;;;;5024421;28;20520;-84
2021/09/13 11:39:31;;;;;;;8.03;3.37;;;;;;;;;;5009373;28;20484;-83
2021/09/13 11:42:01;;;;;;;4.00;2.63;;;;;;;;;;4998504;28;20476;-84
2021/09/13 11:44:30;;;;;;;3.40;2.60;;;;;;;;;;5005252;28;20487;-84
2021/09/13 11:47:00;;;;;;;3.73;3.27;;;;;;;;;;5008896;28;20555;-83
2021/09/13 11:49:30;;;;;;;3.13;2.93;;;;;;;;;;4985178;28;20565;-83
2021/09/13 11:52:17;;;;;;;5.13;3.20;;;;;;;;;;4989795;28;20478;-82
2021/09/13 11:54:47;;;;;;;5.30;4.03;;;;;;;;;;5001112;28;20471;-83
2021/09/13 11:57:38;;;;;;;3.53;2.70;;;;;;;;;;5004891;28;21025;-82
2021/09/13 12:00:09;;;;;;;3.33;3.00;;;;;;;;;;5002516;28;20470;-83
2021/09/13 12:02:39;;;;;;;3.57;3.30;;;;;;;;;;4978805;28;21039;-84
2021/09/13 12:05:10;;;;;;;6.40;3.47;;;;;;;;;;5003734;28;20566;-84
2021/09/13 12:07:39;;;;;;;3.93;3.10;;;;;;;;;;5026641;28;20503;-84
2021/09/13 12:10:08;;;;;;;3.30;3.00;;;;;;;;;;5017847;28;21058;-84
2021/09/13 12:12:43;;;;;;;3.23;3.00;;;;;;;;;;4997478;28;20482;-82
2021/09/13 12:15:12;;;;;;;3.37;3.10;;;;;;;;;;4970342;28;20841;-83
2021/09/13 12:17:43;;;;;;;4.03;3.67;;;;;;;;;;4997327;28;20466;-83
2021/09/13 12:20:13;;;;;;;3.90;3.47;;;;;;;;;;5013609;28;20588;-82
2021/09/13 12:22:42;;;;;;;4.10;3.80;;;;;;;;;;4993346;28;20568;-83
2021/09/13 12:25:11;;;;;;;3.60;3.30;;;;;;;;;;4991902;28;20473;-83
2021/09/13 12:27:41;;;;;;;6.90;3.77;;;;;;;;;;5000773;28;20483;-83
2021/09/13 12:30:14;;;;;;;3.67;3.47;;;;;;;;;;5012859;28;20468;-84
2021/09/13 12:32:49;;;;;;;3.30;2.80;;;;;;;;;;5006805;28;20468;-83
2021/09/13 12:35:18;;;;;;;3.10;2.90;;;;;;;;;;5024879;28;20456;-83
2021/09/13 12:37:53;;;;;;;3.50;3.20;;;;;;;;;;5025880;28;20472;-83
2021/09/13 12:40:22;;;;;;;3.00;2.80;;;;;;;;;;5026374;28;20510;-83
2021/09/13 12:42:55;;;;;;;3.27;3.03;;;;;;;;;;4991608;28;20993;-83
2021/09/13 12:45:24;;;;;;;3.53;3.23;;;;;;;;;;4996889;28;21071;-83
2021/09/13 12:48:05;;;;;;;3.20;3.00;;;;;;;;;;5009024;28;20893;-83
2021/09/13 12:50:35;;;;;;;4.43;3.30;;;;;;;;;;5019752;28;20974;-84
2021/09/13 12:53:09;;;;;;;3.53;3.20;;;;;;;;;;5003410;28;21037;-84
2021/09/13 12:55:42;;;;;;;3.37;3.17;;;;;;;;;;4989633;28;20477;-83
2021/09/13 12:58:36;;;;;;;3.30;3.00;;;;;;;;;;4988253;28;20595;-83
2021/09/13 13:01:07;;;;;;;3.80;3.50;;;;;;;;;;4993512;28;20477;-83
2021/09/13 13:03:37;;;;;;;3.50;3.10;;;;;;;;;;4993350;28;20468;-83
2021/09/13 13:06:15;;;;;;;4.57;3.33;;;;;;;;;;5026979;28;20469;-83
2021/09/13 13:08:43;;;;;;;5.03;3.87;;;;;;;;;;5023858;28;20563;-84
2021/09/13 13:11:12;;;;;;;4.10;3.47;;;;;;;;;;5015913;28;20452;-83
2021/09/13 13:13:40;;;;;;;4.17;3.27;;;;;;;;;;4999479;28;20997;-83
2021/09/13 13:16:08;;;;;;;4.03;3.70;;;;;;;;;;4996942;28;20483;-84
2021/09/13 13:18:39;;;;;;;3.23;2.57;;;;;;;;;;5013806;28;20508;-86
2021/09/13 13:21:37;;;;;;;3.60;3.30;;;;;;;;;;4945237;28;20859;-86
2021/09/13 13:24:06;;;;;;;4.50;3.27;;;;;;;;;;4998062;28;20504;-85
2021/09/13 13:26:35;;;;;;;3.77;3.37;;;;;;;;;;5011501;28;20536;-85
2021/09/13 13:29:04;;;;;;;3.77;3.47;;;;;;;;;;4999171;28;20469;-85
2021/09/13 13:31:32;;;;;;;4.03;3.70;;;;;;;;;;5016634;28;20527;-85
2021/09/13 13:34:02;;;;;;;3.97;3.67;;;;;;;;;;5015709;28;20476;-86
2021/09/13 13:36:31;;;;;;;4.73;4.33;;;;;;;;;;5002311;28;20481;-85
2021/09/13 13:38:59;;;;;;;4.27;3.87;;;;;;;;;;5011691;28;20476;-84
2021/09/13 13:41:28;;;;;;;4.40;3.00;;;;;;;;;;5010651;28;20457;-86
2021/09/13 13:43:58;;;;;;;4.40;3.77;;;;;;;;;;5003802;28;20471;-86
2021/09/13 13:46:27;;;;;;;3.20;3.00;;;;;;;;;;5012921;28;20575;-85
2021/09/13 13:48:56;;;;;;;3.97;3.57;;;;;;;;;;5021987;28;20992;-85
2021/09/13 13:51:26;;;;;;;3.60;3.37;;;;;;;;;;5045828;23;20457;-86
2021/09/13 13:53:54;;;;;;;3.87;3.63;;;;;;;;;;5049761;28;20833;-85
2021/09/13 13:56:22;;;;;;;6.40;3.43;;;;;;;;;;5022346;28;20866;-86
2021/09/13 13:58:51;;;;;;;3.80;3.53;;;;;;;;;;5044814;28;20477;-86
2021/09/13 14:01:19;;;;;;;3.97;3.40;;;;;;;;;;5029243;28;20479;-86
2021/09/13 14:03:48;;;;;;;4.90;3.60;;;;;;;;;;5030991;28;20467;-86
2021/09/13 14:06:17;;;;;;;5.10;4.00;;;;;;;;;;5044225;28;21054;-85
2021/09/13 14:08:46;;;;;;;4.73;4.33;;;;;;;;;;5016876;28;20476;-84
2021/09/13 14:11:15;;;;;;;4.63;4.23;;;;;;;;;;5004842;28;20495;-83
2021/09/13 14:13:43;;;;;;;3.83;3.50;;;;;;;;;;5029885;28;21123;-83
2021/09/13 14:16:11;;;;;;;4.40;3.97;;;;;;;;;;5018671;28;20543;-86
2021/09/13 14:18:39;;;;;;;4.17;3.77;;;;;;;;;;5019804;28;21055;-85
2021/09/13 14:21:11;;;;;;;5.07;4.27;;;;;;;;;;5020586;28;20478;-86
2021/09/13 14:23:40;;;;;;;4.20;3.90;;;;;;;;;;5026287;28;21219;-86
2021/09/13 14:26:09;;;;;;;4.40;4.03;;;;;;;;;;5020397;28;20472;-86
2021/09/13 14:28:38;;;;;;;4.53;3.87;;;;;;;;;;5039778;28;20478;-86
2021/09/13 14:31:06;;;;;;;4.60;4.13;;;;;;;;;;5006063;28;20838;-86
2021/09/13 14:33:35;;;;;;;4.30;3.90;;;;;;;;;;5037989;28;20539;-85
2021/09/13 14:36:04;;;;;;;3.50;3.20;;;;;;;;;;5025539;28;20464;-84
2021/09/13 14:38:32;;;;;;;6.30;3.60;;;;;;;;;;5004671;28;21008;-84
2021/09/13 14:41:00;;;;;;;4.30;3.90;;;;;;;;;;5022337;28;20486;-83
2021/09/13 14:43:30;;;;;;;4.07;3.77;;;;;;;;;;5039304;28;20498;-84
2021/09/13 14:45:58;;;;;;;4.53;3.60;;;;;;;;;;5030523;28;20462;-84
2021/09/13 14:48:28;;;;;;;4.20;3.50;;;;;;;;;;5044948;28;20555;-84
2021/09/13 14:50:57;;;;;;;6.20;4.00;;;;;;;;;;5047631;28;20475;-84
2021/09/13 14:53:25;;;;;;;4.90;4.10;;;;;;;;;;5047042;28;20467;-84
2021/09/13 14:55:53;;;;;;;4.20;3.80;;;;;;;;;;5047665;28;20490;-84
2021/09/13 14:58:22;;;;;;;3.70;3.33;;;;;;;;;;5037728;28;20578;-83
2021/09/13 15:00:53;;;;;;;7.23;3.50;;;;;;;;;;5048774;28;20479;-84
2021/09/13 15:03:22;;;;;;;4.33;3.77;;;;;;;;;;5057035;28;20516;-84
2021/09/13 15:05:50;;;;;;;3.57;3.37;;;;;;;;;;5046536;28;21029;-83
2021/09/13 15:08:18;;;;;;;6.80;3.20;;;;;;;;;;5023121;28;20460;-83
2021/09/13 15:10:47;;;;;;;6.37;3.73;;;;;;;;;;5029381;28;20497;-84
2021/09/13 15:13:15;;;;;;;4.20;3.90;;;;;;;;;;5018679;28;20468;-86
2021/09/13 15:15:44;;;;;;;4.23;3.87;;;;;;;;;;5033469;28;20494;-87
2021/09/13 15:18:13;;;;;;;4.67;4.00;;;;;;;;;;5030299;28;20463;-86
2021/09/13 15:20:46;;;;;;;4.70;3.80;;;;;;;;;;5030757;28;20471;-86
2021/09/13 15:23:15;;;;;;;3.50;3.23;;;;;;;;;;5034672;28;20490;-86
2021/09/13 15:25:44;;;;;;;4.17;3.80;;;;;;;;;;5035360;28;20472;-86
2021/09/13 15:28:12;;;;;;;5.23;4.73;;;;;;;;;;5046546;28;20471;-86
2021/09/13 15:30:41;;;;;;;4.07;3.77;;;;;;;;;;5038047;28;20466;-86
2021/09/13 15:33:09;;;;;;;4.17;3.87;;;;;;;;;;5044901;28;20550;-86
2021/09/13 15:35:45;;;;;;;5.43;3.30;;;;;;;;;;5046739;28;20477;-86
2021/09/13 15:38:13;;;;;;;4.27;3.83;;;;;;;;;;5040704;28;20479;-85
2021/09/13 15:40:43;;;;;;;4.37;3.97;;;;;;;;;;5037556;28;20471;-85
2021/09/13 15:43:11;;;;;;;3.40;3.10;;;;;;;;;;5040202;28;20476;-85
2021/09/13 15:45:40;;;;;;;3.73;3.43;;;;;;;;;;5033123;28;20468;-86
2021/09/13 15:48:09;;;;;;;4.63;4.23;;;;;;;;;;5043783;28;20475;-86
2021/09/13 15:50:38;;;;;;;3.80;3.47;;;;;;;;;;5041224;28;20548;-82
2021/09/13 15:53:08;;;;;;;4.80;3.20;;;;;;;;;;5033453;28;20475;-84
2021/09/13 15:55:36;;;;;;;6.87;3.87;;;;;;;;;;5032344;28;20832;-83
2021/09/13 15:58:04;;;;;;;3.77;3.47;;;;;;;;;;5041754;28;21078;-84
2021/09/13 16:00:33;;;;;;;3.60;3.40;;;;;;;;;;5031507;28;20466;-84
2021/09/13 16:03:01;;;;;;;4.00;3.57;;;;;;;;;;5056766;28;20498;-84
2021/09/13 16:05:30;;;;;;;4.23;3.50;;;;;;;;;;5044891;28;20470;-83
2021/09/13 16:07:58;;;;;;;4.17;3.30;;;;;;;;;;5055864;28;20482;-84
2021/09/13 16:10:28;;;;;;;3.63;3.40;;;;;;;;;;5044845;28;20843;-83
2021/09/13 16:12:56;;;;;;;4.13;3.37;;;;;;;;;;5032295;28;20485;-84
2021/09/13 16:15:24;;;;;;;4.90;3.70;;;;;;;;;;5043466;28;20557;-85
2021/09/13 16:17:53;;;;;;;4.67;3.57;;;;;;;;;;5037871;28;20462;-86
2021/09/13 16:20:23;;;;;;;4.17;3.50;;;;;;;;;;5043332;28;20470;-86
2021/09/13 16:22:52;;;;;;;4.13;3.80;;;;;;;;;;5036666;28;20882;-86
2021/09/13 16:25:20;;;;;;;4.27;3.87;;;;;;;;;;5036912;28;20476;-86
2021/09/13 16:27:51;;;;;;;3.80;3.50;;;;;;;;;;5038551;28;21101;-86
2021/09/13 16:30:19;;;;;;;8.10;3.43;;;;;;;;;;5041123;28;20558;-85
2021/09/13 16:32:47;;;;;;;4.57;4.17;;;;;;;;;;5043338;28;20479;-86
2021/09/13 16:35:15;;;;;;;5.47;3.43;;;;;;;;;;5048774;28;20845;-86
2021/09/13 16:37:44;;;;;;;4.00;3.60;;;;;;;;;;5046707;28;20558;-86
2021/09/13 16:40:12;;;;;;;7.20;3.73;;;;;;;;;;5045818;28;20463;-86
2021/09/13 16:42:40;;;;;;;3.90;3.60;;;;;;;;;;5041064;28;20498;-87
2021/09/13 16:45:11;;;;;;;10.63;4.50;;;;;;;;;;5039977;28;20482;-88
2021/09/13 16:47:39;;;;;;;4.20;3.80;;;;;;;;;;5038053;28;20471;-85
2021/09/13 16:50:08;;;;;;;4.63;4.23;;;;;;;;;;5045766;28;20479;-85
2021/09/13 16:52:36;;;;;;;4.17;3.80;;;;;;;;;;5038909;28;20558;-86
2021/09/13 16:55:05;;;;;;;4.87;3.97;;;;;;;;;;5030777;28;20550;-86
2021/09/13 16:57:33;;;;;;;7.60;4.57;;;;;;;;;;5037108;28;20532;-86
2021/09/13 17:00:01;;;;;;;4.30;3.97;;;;;;;;;;5052050;28;20528;-86
2021/09/13 17:02:31;;;;;;;4.53;4.20;;;;;;;;;;5045187;28;20477;-86
2021/09/13 17:05:00;;;;;;;9.43;5.50;;;;;;;;;;5043253;28;21223;-85
2021/09/13 17:07:28;;;;;;;4.67;4.27;;;;;;;;;;5032899;28;20463;-86
2021/09/13 17:09:56;;;;;;;4.37;3.97;;;;;;;;;;5036416;28;20985;-86
2021/09/13 17:12:25;;;;;;;4.50;4.10;;;;;;;;;;5039009;28;21077;-85
2021/09/13 17:14:53;;;;;;;4.43;4.00;;;;;;;;;;5037627;28;21012;-86
2021/09/13 17:17:21;;;;;;;4.53;3.70;;;;;;;;;;5049853;28;20481;-85
2021/09/13 17:19:52;;;;;;;4.40;4.00;;;;;;;;;;5047895;28;20470;-86
2021/09/13 17:22:20;;;;;;;5.53;4.10;;;;;;;;;;5044529;28;20566;-86
2021/09/13 17:24:48;;;;;;;4.07;3.70;;;;;;;;;;5041991;28;20467;-86
2021/09/13 17:27:17;;;;;;;4.80;3.93;;;;;;;;;;5041444;28;20491;-87
2021/09/13 17:29:46;;;;;;;4.47;4.07;;;;;;;;;;5030561;28;20481;-86
2021/09/13 17:32:14;;;;;;;4.97;4.47;;;;;;;;;;5038498;28;20483;-86
2021/09/13 17:34:42;;;;;;;5.07;4.10;;;;;;;;;;5045414;28;20467;-85
2021/09/13 17:37:12;;;;;;;10.80;6.10;;;;;;;;;;5044553;28;20472;-86
2021/09/13 17:39:40;;;;;;;7.47;3.87;;;;;;;;;;5037539;28;20476;-86
2021/09/13 17:42:09;;;;;;;6.43;4.33;;;;;;;;;;5028271;28;20464;-86
2021/09/13 17:44:37;;;;;;;11.30;5.77;;;;;;;;;;5037820;28;20855;-86
2021/09/13 17:47:05;;;;;;;8.37;5.13;;;;;;;;;;5038325;28;20840;-84
2021/09/13 17:49:34;;;;;;;7.63;4.70;;;;;;;;;;5045444;28;20477;-85
2021/09/13 17:52:02;;;;;;;5.83;4.10;;;;;;;;;;5042017;28;21017;-86
2021/09/13 17:54:35;;;;;;;9.97;5.27;;;;;;;;;;5046376;28;20538;-84
2021/09/13 17:57:04;;;;;;;5.60;4.60;;;;;;;;;;5019410;28;20479;-84
2021/09/13 17:59:32;;;;;;;17.03;5.37;;;;;;;;;;5028817;28;20480;-86
2021/09/13 18:02:00;;;;;;;9.20;4.33;;;;;;;;;;5022692;28;20928;-88
2021/09/13 18:04:29;;;;;;;4.23;3.60;;;;;;;;;;5027980;28;20464;-88
2021/09/13 18:06:58;;;;;;;5.00;4.60;;;;;;;;;;5018257;28;20475;-87
2021/09/13 18:09:26;;;;;;;7.20;4.00;;;;;;;;;;5011044;28;20554;-87
2021/09/13 18:11:56;;;;;;;5.00;4.53;;;;;;;;;;5035889;28;20463;-87
2021/09/13 18:14:33;;;;;;;5.03;4.60;;;;;;;;;;5033250;28;20519;-87
2021/09/13 18:17:01;;;;;;;9.20;4.60;;;;;;;;;;5021246;28;21028;-88
2021/09/13 18:19:31;;;;;;;4.50;4.10;;;;;;;;;;5029110;28;21204;-89
2021/09/13 18:21:59;;;;;;;4.50;3.90;;;;;;;;;;5047273;28;20474;-89
2021/09/13 18:24:27;;;;;;;8.83;4.60;;;;;;;;;;5037011;28;20487;-89
2021/09/13 18:27:00;;;;;;;4.80;4.40;;;;;;;;;;5035939;28;20479;-89
2021/09/13 18:29:28;;;;;;;5.67;4.20;;;;;;;;;;5043721;28;20938;-89
2021/09/13 18:31:56;;;;;;;6.00;4.40;;;;;;;;;;5041826;28;20880;-89
2021/09/13 18:34:25;;;;;;;6.67;4.80;;;;;;;;;;5049743;28;20459;-88
2021/09/13 18:36:53;;;;;;;5.30;4.00;;;;;;;;;;5043507;28;20467;-89
2021/09/13 18:39:22;;;;;;;5.80;4.50;;;;;;;;;;5042345;28;20997;-89
2021/09/13 18:41:50;;;;;;;4.90;4.50;;;;;;;;;;5045132;28;20471;-89
2021/09/13 18:44:19;;;;;;;7.10;6.40;;;;;;;;;;5038381;28;20467;-89
2021/09/13 18:46:48;;;;;;;8.80;7.90;;;;;;;;;;5034348;28;20467;-89
2021/09/13 18:49:17;;;;;;;9.43;8.43;;;;;;;;;;5047188;28;20482;-89
2021/09/13 18:51:45;;;;;;;8.13;7.37;;;;;;;;;;5047602;28;20953;-90
2021/09/13 18:54:13;;;;;;;8.80;7.13;;;;;;;;;;5048159;28;21011;-89
2021/09/13 18:56:41;;;;;;;11.30;7.80;;;;;;;;;;5047111;28;20999;-89
2021/09/13 18:59:10;;;;;;;9.80;8.47;;;;;;;;;;5038747;28;20483;-89
2021/09/13 19:01:39;;;;;;;15.67;12.47;;;;;;;;;;5054573;28;20493;-89
2021/09/13 19:04:08;;;;;;;28.67;18.17;;;;;;;;;;5046643;28;20467;-89
2021/09/13 19:06:36;;;;;;;27.93;18.63;;;;;;;;;;5049818;28;20471;-89
2021/09/13 19:09:05;;;;;;;27.70;20.57;;;;;;;;;;5046016;28;20534;-89
2021/09/13 19:11:33;;;;;;;29.10;21.50;;;;;;;;;;5042372;28;21047;-89
2021/09/13 19:14:02;;;;;;;38.13;25.87;;;;;;;;;;5041449;28;20478;-88
2021/09/13 19:16:30;;;;;;;34.57;24.00;;;;;;;;;;5051266;28;20462;-89
2021/09/13 19:19:00;;;;;;;20.60;15.90;;;;;;;;;;5019245;28;20495;-89
2021/09/13 19:21:30;;;;;;;15.70;13.27;;;;;;;;;;5031890;28;20479;-89
2021/09/13 19:23:59;;;;;;;19.43;12.10;;;;;;;;;;5021805;28;20609;-89
2021/09/13 19:30:26;;;;;;;9.47;8.43;;;;;;;;;;4811959;29;20531;-88
2021/09/13 19:36:49;;;;;;;8.17;7.23;;;;;;;;;;4928612;28;20505;-89
2021/09/13 19:39:22;;;;;;;11.50;8.43;;;;;;;;;;5016240;28;20493;-90
2021/09/13 19:41:56;;;;;;;9.20;7.77;;;;;;;;;;5025747;28;20476;-89
2021/09/13 19:44:53;;;;;;;10.00;8.20;;;;;;;;;;4999711;28;20472;-89
2021/09/13 19:47:30;;;;;;;10.73;8.33;;;;;;;;;;5003167;28;20488;-89
2021/09/13 19:50:04;;;;;;;11.90;8.03;;;;;;;;;;5022510;28;20972;-89
2021/09/13 19:52:34;;;;;;;11.63;8.63;;;;;;;;;;5034760;22;20475;-84
2021/09/13 19:55:02;;;;;;;9.70;8.70;;;;;;;;;;5024302;28;20479;-85
2021/09/13 19:57:30;;;;;;;10.07;7.40;;;;;;;;;;5024992;28;20464;-86
2021/09/13 20:00:01;;;;;;;10.70;8.87;;;;;;;;;;5026769;28;20479;-84
2021/09/13 20:02:30;;;;;;;10.80;8.70;;;;;;;;;;5041558;28;20491;-85
2021/09/13 20:04:58;;;;;;;12.63;8.90;;;;;;;;;;5033296;28;20518;-84
2021/09/13 20:07:27;;;;;;;14.30;8.90;;;;;;;;;;5024944;28;20472;-85
2021/09/13 20:09:56;;;;;;;14.57;9.13;;;;;;;;;;5027550;28;20472;-85
2021/09/13 20:12:25;;;;;;;11.73;9.23;;;;;;;;;;5025133;28;20485;-84
2021/09/13 20:14:53;;;;;;;10.73;9.60;;;;;;;;;;5026172;28;20559;-84
2021/09/13 20:17:21;;;;;;;13.70;9.90;;;;;;;;;;5019037;28;20556;-84
2021/09/13 20:19:50;;;;;;;10.40;9.30;;;;;;;;;;5031417;28;20538;-84
2021/09/13 20:22:18;;;;;;;16.07;9.73;;;;;;;;;;5014284;28;20543;-84
2021/09/13 20:24:46;;;;;;;11.60;9.60;;;;;;;;;;5018844;28;20492;-84
2021/09/13 20:27:16;;;;;;;11.83;9.90;;;;;;;;;;5020941;28;20479;-85
2021/09/13 20:29:44;;;;;;;13.03;9.87;;;;;;;;;;5025292;28;20975;-84
2021/09/13 20:32:13;;;;;;;14.93;10.60;;;;;;;;;;5025484;28;20475;-83
2021/09/13 20:34:41;;;;;;;13.13;9.20;;;;;;;;;;5028295;28;20455;-84
2021/09/13 20:37:09;;;;;;;12.07;9.30;;;;;;;;;;5028643;28;21047;-84
2021/09/13 20:39:40;;;;;;;10.93;9.10;;;;;;;;;;5028117;28;20471;-84
2021/09/13 20:42:08;;;;;;;13.37;9.70;;;;;;;;;;5029562;28;20476;-84
2021/09/13 20:44:38;;;;;;;10.90;8.80;;;;;;;;;;5015019;28;20475;-83
2021/09/13 20:47:06;;;;;;;11.33;8.73;;;;;;;;;;5027795;28;20480;-83
2021/09/13 20:49:36;;;;;;;13.27;9.77;;;;;;;;;;5030004;28;20466;-84
2021/09/13 20:52:04;;;;;;;9.90;8.90;;;;;;;;;;5024179;28;20472;-85
2021/09/13 20:54:33;;;;;;;9.70;8.40;;;;;;;;;;5024246;28;20511;-84
2021/09/13 20:57:01;;;;;;;8.90;8.00;;;;;;;;;;5023510;28;20479;-84
2021/09/13 20:59:30;;;;;;;10.80;8.90;;;;;;;;;;5024042;28;20467;-84
2021/09/13 21:01:59;;;;;;;15.63;9.10;;;;;;;;;;5011203;28;22054;-83
2021/09/13 21:04:28;;;;;;;10.10;9.03;;;;;;;;;;5021695;28;20476;-86
2021/09/13 21:06:56;;;;;;;10.20;9.10;;;;;;;;;;5020805;28;20563;-83
2021/09/13 21:09:25;;;;;;;10.63;9.23;;;;;;;;;;5023064;28;20470;-84
2021/09/13 21:11:53;;;;;;;10.73;9.00;;;;;;;;;;5013321;28;20527;-84
2021/09/13 21:14:31;;;;;;;11.17;8.70;;;;;;;;;;5025671;28;21239;-83
2021/09/13 21:17:00;;;;;;;9.73;8.73;;;;;;;;;;5028515;28;20480;-85
2021/09/13 21:19:28;;;;;;;13.50;8.97;;;;;;;;;;5030794;28;20551;-85
2021/09/13 21:21:57;;;;;;;12.70;9.47;;;;;;;;;;5042790;28;20472;-84